sensor_id;sensor_type;location;lat;lon;timestamp;pressure;altitude;pressure_sealevel;temperature;humidity
52957;BME280;38819;42.692;23.342;2023-10-09T00:00:52;95749.09;;;19.44;52.42
52957;BME280;38819;42.692;23.342;2023-10-09T00:03:21;95749.13;;;19.36;52.53
52957;BME280;38819;42.692;23.342;2023-10-09T00:05:50;95750.63;;;19.33;52.80
52957;BME280;38819;42.692;23.342;2023-10-09T00:08:18;95739.88;;;19.28;52.71
52957;BME280;38819;42.692;23.342;2023-10-09T00:10:50;95760.63;;;19.29;52.83
52957;BME280;38819;42.692;23.342;2023-10-09T00:13:20;95750.56;;;19.21;52.67
52957;BME280;38819;42.692;23.342;2023-10-09T00:15:52;95754.56;;;19.23;52.58
52957;BME280;38819;42.692;23.342;2023-10-09T00:18:18;95748.50;;;19.18;52.86
52957;BME280;38819;42.692;23.342;2023-10-09T00:20:48;95753.28;;;19.21;52.77
52957;BME280;38819;42.692;23.342;2023-10-09T00:23:19;95748.63;;;19.21;52.75
52957;BME280;38819;42.692;23.342;2023-10-09T00:25:54;95754.78;;;19.18;52.57
52957;BME280;38819;42.692;23.342;2023-10-09T00:28:51;95757.25;;;19.11;52.96
52957;BME280;38819;42.692;23.342;2023-10-09T00:31:18;95754.31;;;18.95;53.12
52957;BME280;38819;42.692;23.342;2023-10-09T00:33:58;95740.03;;;18.90;53.42
52957;BME280;38819;42.692;23.342;2023-10-09T00:36:44;95750.97;;;18.81;53.63
52957;BME280;38819;42.692;23.342;2023-10-09T00:39:15;95742.97;;;18.84;53.40
52957;BME280;38819;42.692;23.342;2023-10-09T00:41:48;95743.44;;;18.86;53.49
52957;BME280;38819;42.692;23.342;2023-10-09T00:44:13;95746.03;;;18.83;53.34
52957;BME280;38819;42.692;23.342;2023-10-09T00:46:40;95736.34;;;18.85;53.39
52957;BME280;38819;42.692;23.342;2023-10-09T00:49:08;95749.84;;;18.82;53.19
52957;BME280;38819;42.692;23.342;2023-10-09T00:51:40;95757.31;;;18.73;53.58
52957;BME280;38819;42.692;23.342;2023-10-09T00:54:08;95748.44;;;18.55;54.05
52957;BME280;38819;42.692;23.342;2023-10-09T00:56:40;95773.97;;;18.59;53.81
52957;BME280;38819;42.692;23.342;2023-10-09T00:59:10;95764.53;;;18.47;53.88
52957;BME280;38819;42.692;23.342;2023-10-09T01:01:45;95762.50;;;18.36;54.26
52957;BME280;38819;42.692;23.342;2023-10-09T01:04:22;95770.25;;;18.33;53.78
52957;BME280;38819;42.692;23.342;2023-10-09T01:06:50;95783.50;;;18.23;53.83
52957;BME280;38819;42.692;23.342;2023-10-09T01:09:32;95804.44;;;18.10;54.09
52957;BME280;38819;42.692;23.342;2023-10-09T01:12:07;95802.34;;;18.07;53.88
52957;BME280;38819;42.692;23.342;2023-10-09T01:14:42;95803.63;;;18.09;53.43
52957;BME280;38819;42.692;23.342;2023-10-09T01:17:08;95790.28;;;18.08;53.50
52957;BME280;38819;42.692;23.342;2023-10-09T01:19:34;95812.81;;;18.05;53.40
52957;BME280;38819;42.692;23.342;2023-10-09T01:22:00;95796.88;;;18.07;53.41
52957;BME280;38819;42.692;23.342;2023-10-09T01:24:30;95805.06;;;18.07;53.29
52957;BME280;38819;42.692;23.342;2023-10-09T01:26:59;95817.94;;;18.06;53.36
52957;BME280;38819;42.692;23.342;2023-10-09T01:29:24;95813.91;;;18.12;52.76
52957;BME280;38819;42.692;23.342;2023-10-09T01:31:55;95819.88;;;18.14;53.08
52957;BME280;38819;42.692;23.342;2023-10-09T01:34:24;95829.03;;;18.10;52.97
52957;BME280;38819;42.692;23.342;2023-10-09T01:36:53;95823.44;;;17.98;52.83
52957;BME280;38819;42.692;23.342;2023-10-09T01:39:25;95830.81;;;17.97;52.62
52957;BME280;38819;42.692;23.342;2023-10-09T01:41:57;95827.78;;;17.64;53.30
52957;BME280;38819;42.692;23.342;2023-10-09T01:44:32;95828.94;;;17.63;53.60
52957;BME280;38819;42.692;23.342;2023-10-09T01:47:03;95836.16;;;17.50;53.91
52957;BME280;38819;42.692;23.342;2023-10-09T01:49:36;95846.59;;;17.56;53.94
52957;BME280;38819;42.692;23.342;2023-10-09T01:52:07;95853.31;;;17.59;53.60
52957;BME280;38819;42.692;23.342;2023-10-09T01:54:39;95849.19;;;17.44;53.78
52957;BME280;38819;42.692;23.342;2023-10-09T01:57:07;95856.06;;;17.41;53.45
52957;BME280;38819;42.692;23.342;2023-10-09T01:59:40;95860.38;;;17.34;53.47
52957;BME280;38819;42.692;23.342;2023-10-09T02:02:21;95886.25;;;17.36;53.42
52957;BME280;38819;42.692;23.342;2023-10-09T02:05:03;95852.50;;;17.23;53.58
52957;BME280;38819;42.692;23.342;2023-10-09T02:07:32;95867.16;;;17.28;53.50
52957;BME280;38819;42.692;23.342;2023-10-09T02:10:09;95860.84;;;17.10;54.08
52957;BME280;38819;42.692;23.342;2023-10-09T02:12:47;95876.06;;;16.93;54.44
52957;BME280;38819;42.692;23.342;2023-10-09T02:15:16;95884.09;;;16.98;54.45
52957;BME280;38819;42.692;23.342;2023-10-09T02:18:01;95887.28;;;16.92;54.45
52957;BME280;38819;42.692;23.342;2023-10-09T02:20:41;95870.41;;;16.81;54.89
52957;BME280;38819;42.692;23.342;2023-10-09T02:23:06;95864.50;;;16.88;54.59
52957;BME280;38819;42.692;23.342;2023-10-09T02:25:38;95882.00;;;16.95;54.63
52957;BME280;38819;42.692;23.342;2023-10-09T02:28:11;95880.88;;;16.96;54.51
52957;BME280;38819;42.692;23.342;2023-10-09T02:30:44;95900.78;;;16.97;54.47
52957;BME280;38819;42.692;23.342;2023-10-09T02:33:13;95907.19;;;16.92;54.36
52957;BME280;38819;42.692;23.342;2023-10-09T02:35:39;95913.81;;;17.00;53.73
52957;BME280;38819;42.692;23.342;2023-10-09T02:38:08;95913.00;;;16.99;53.79
52957;BME280;38819;42.692;23.342;2023-10-09T02:40:40;95918.00;;;17.06;53.54
52957;BME280;38819;42.692;23.342;2023-10-09T02:43:26;95918.00;;;16.97;53.64
52957;BME280;38819;42.692;23.342;2023-10-09T02:45:52;95899.16;;;16.87;53.95
52957;BME280;38819;42.692;23.342;2023-10-09T02:48:17;95905.16;;;16.66;54.64
52957;BME280;38819;42.692;23.342;2023-10-09T02:50:46;95900.59;;;16.53;54.89
52957;BME280;38819;42.692;23.342;2023-10-09T02:53:12;95908.78;;;16.53;54.91
52957;BME280;38819;42.692;23.342;2023-10-09T02:55:44;95905.28;;;16.30;55.65
52957;BME280;38819;42.692;23.342;2023-10-09T02:58:29;95905.78;;;16.32;55.67
52957;BME280;38819;42.692;23.342;2023-10-09T03:00:57;95919.75;;;16.30;55.57
52957;BME280;38819;42.692;23.342;2023-10-09T03:03:23;95918.03;;;16.43;55.24
52957;BME280;38819;42.692;23.342;2023-10-09T03:05:50;95934.22;;;16.40;55.16
52957;BME280;38819;42.692;23.342;2023-10-09T03:08:16;95928.97;;;16.21;55.79
52957;BME280;38819;42.692;23.342;2023-10-09T03:10:45;95928.47;;;16.19;55.81
52957;BME280;38819;42.692;23.342;2023-10-09T03:13:10;95934.91;;;16.23;55.57
52957;BME280;38819;42.692;23.342;2023-10-09T03:15:35;95933.28;;;16.22;55.71
52957;BME280;38819;42.692;23.342;2023-10-09T03:18:02;95938.63;;;16.27;55.60
52957;BME280;38819;42.692;23.342;2023-10-09T03:20:30;95931.44;;;16.31;55.11
52957;BME280;38819;42.692;23.342;2023-10-09T03:22:56;95930.94;;;16.29;55.25
52957;BME280;38819;42.692;23.342;2023-10-09T03:25:22;95949.53;;;16.27;55.50
52957;BME280;38819;42.692;23.342;2023-10-09T03:27:50;95946.19;;;16.30;54.98
52957;BME280;38819;42.692;23.342;2023-10-09T03:30:18;95958.53;;;16.27;54.72
52957;BME280;38819;42.692;23.342;2023-10-09T03:32:53;95967.97;;;16.30;54.66
52957;BME280;38819;42.692;23.342;2023-10-09T03:35:22;95972.94;;;16.05;55.00
52957;BME280;38819;42.692;23.342;2023-10-09T03:37:57;95967.63;;;16.23;54.64
52957;BME280;38819;42.692;23.342;2023-10-09T03:40:25;95962.78;;;16.20;54.51
52957;BME280;38819;42.692;23.342;2023-10-09T03:42:51;95972.25;;;16.00;54.99
52957;BME280;38819;42.692;23.342;2023-10-09T03:45:18;95966.88;;;16.08;54.39
52957;BME280;38819;42.692;23.342;2023-10-09T03:47:52;95976.34;;;16.11;54.46
52957;BME280;38819;42.692;23.342;2023-10-09T03:50:22;95974.59;;;16.15;54.52
52957;BME280;38819;42.692;23.342;2023-10-09T03:53:02;95983.38;;;16.26;54.09
52957;BME280;38819;42.692;23.342;2023-10-09T03:55:28;95984.28;;;16.21;53.99
52957;BME280;38819;42.692;23.342;2023-10-09T03:57:55;95979.81;;;16.25;53.79
52957;BME280;38819;42.692;23.342;2023-10-09T04:00:23;95981.06;;;16.19;53.93
52957;BME280;38819;42.692;23.342;2023-10-09T04:02:54;95980.25;;;16.19;53.61
52957;BME280;38819;42.692;23.342;2023-10-09T04:05:19;95979.50;;;16.04;53.93
52957;BME280;38819;42.692;23.342;2023-10-09T04:07:45;95982.38;;;15.85;54.15
52957;BME280;38819;42.692;23.342;2023-10-09T04:10:11;95971.06;;;15.92;54.17
52957;BME280;38819;42.692;23.342;2023-10-09T04:12:54;95978.00;;;15.98;53.86
52957;BME280;38819;42.692;23.342;2023-10-09T04:15:23;95985.28;;;16.03;53.24
52957;BME280;38819;42.692;23.342;2023-10-09T04:17:49;95987.13;;;16.16;53.33
52957;BME280;38819;42.692;23.342;2023-10-09T04:20:16;95988.25;;;16.15;52.96
52957;BME280;38819;42.692;23.342;2023-10-09T04:22:45;95983.41;;;16.12;52.81
52957;BME280;38819;42.692;23.342;2023-10-09T04:25:24;95978.59;;;16.09;52.76
52957;BME280;38819;42.692;23.342;2023-10-09T04:28:07;95985.94;;;15.86;53.01
52957;BME280;38819;42.692;23.342;2023-10-09T04:30:44;95982.84;;;15.79;53.08
52957;BME280;38819;42.692;23.342;2023-10-09T04:33:12;95996.31;;;15.70;52.84
52957;BME280;38819;42.692;23.342;2023-10-09T04:36:06;95998.28;;;15.55;52.81
52957;BME280;38819;42.692;23.342;2023-10-09T04:38:41;95991.41;;;15.58;53.07
52957;BME280;38819;42.692;23.342;2023-10-09T04:41:23;95992.00;;;15.55;52.51
52957;BME280;38819;42.692;23.342;2023-10-09T04:43:53;96000.41;;;15.59;52.60
52957;BME280;38819;42.692;23.342;2023-10-09T04:46:30;95996.84;;;15.72;52.12
52957;BME280;38819;42.692;23.342;2023-10-09T04:49:09;95996.50;;;15.73;51.48
52957;BME280;38819;42.692;23.342;2023-10-09T04:51:52;95998.03;;;15.80;50.92
52957;BME280;38819;42.692;23.342;2023-10-09T04:54:32;95989.06;;;15.79;51.30
52957;BME280;38819;42.692;23.342;2023-10-09T04:57:26;95989.59;;;15.67;51.39
52957;BME280;38819;42.692;23.342;2023-10-09T04:59:52;95990.38;;;15.68;51.04
52957;BME280;38819;42.692;23.342;2023-10-09T05:02:24;96001.56;;;15.66;50.96
52957;BME280;38819;42.692;23.342;2023-10-09T05:04:49;96006.34;;;15.61;50.81
52957;BME280;38819;42.692;23.342;2023-10-09T05:07:34;96013.59;;;15.65;50.80
52957;BME280;38819;42.692;23.342;2023-10-09T05:10:20;96016.00;;;15.67;50.37
52957;BME280;38819;42.692;23.342;2023-10-09T05:12:50;96010.25;;;15.68;50.25
52957;BME280;38819;42.692;23.342;2023-10-09T05:15:24;96025.38;;;15.74;49.65
52957;BME280;38819;42.692;23.342;2023-10-09T05:17:55;96019.03;;;15.65;49.81
52957;BME280;38819;42.692;23.342;2023-10-09T05:20:34;96020.44;;;15.63;49.55
52957;BME280;38819;42.692;23.342;2023-10-09T05:23:20;96022.69;;;15.33;49.76
52957;BME280;38819;42.692;23.342;2023-10-09T05:25:49;96039.22;;;15.23;50.29
52957;BME280;38819;42.692;23.342;2023-10-09T05:28:24;96044.06;;;15.26;50.06
52957;BME280;38819;42.692;23.342;2023-10-09T05:31:19;96050.31;;;15.26;50.08
52957;BME280;38819;42.692;23.342;2023-10-09T05:34:17;96036.69;;;15.40;49.44
52957;BME280;38819;42.692;23.342;2023-10-09T05:36:45;96050.81;;;15.42;49.29
52957;BME280;38819;42.692;23.342;2023-10-09T05:39:13;96041.13;;;15.36;48.89
52957;BME280;38819;42.692;23.342;2023-10-09T05:41:56;96056.16;;;15.47;48.95
52957;BME280;38819;42.692;23.342;2023-10-09T05:44:25;96060.31;;;15.59;48.40
52957;BME280;38819;42.692;23.342;2023-10-09T05:47:09;96070.25;;;15.63;48.33
52957;BME280;38819;42.692;23.342;2023-10-09T05:49:52;96063.22;;;15.62;48.04
52957;BME280;38819;42.692;23.342;2023-10-09T05:52:33;96074.00;;;15.81;47.58
52957;BME280;38819;42.692;23.342;2023-10-09T05:55:05;96075.91;;;15.67;47.79
52957;BME280;38819;42.692;23.342;2023-10-09T05:57:52;96083.69;;;15.60;48.01
52957;BME280;38819;42.692;23.342;2023-10-09T06:00:21;96081.66;;;15.51;47.77
52957;BME280;38819;42.692;23.342;2023-10-09T06:03:05;96100.81;;;15.32;48.15
52957;BME280;38819;42.692;23.342;2023-10-09T06:05:52;96100.63;;;15.29;47.81
52957;BME280;38819;42.692;23.342;2023-10-09T06:08:21;96101.63;;;15.19;47.82
52957;BME280;38819;42.692;23.342;2023-10-09T06:10:55;96099.78;;;15.14;47.95
52957;BME280;38819;42.692;23.342;2023-10-09T06:13:39;96103.66;;;15.27;47.77
52957;BME280;38819;42.692;23.342;2023-10-09T06:16:11;96101.03;;;15.36;47.50
52957;BME280;38819;42.692;23.342;2023-10-09T06:18:57;96114.63;;;15.36;47.16
52957;BME280;38819;42.692;23.342;2023-10-09T06:21:49;96114.63;;;15.22;46.65
52957;BME280;38819;42.692;23.342;2023-10-09T06:24:23;96117.75;;;15.29;46.07
52957;BME280;38819;42.692;23.342;2023-10-09T06:26:51;96115.22;;;15.33;46.36
52957;BME280;38819;42.692;23.342;2023-10-09T06:29:26;96129.34;;;15.35;45.95
52957;BME280;38819;42.692;23.342;2023-10-09T06:32:05;96120.69;;;15.33;46.13
52957;BME280;38819;42.692;23.342;2023-10-09T06:34:57;96121.91;;;15.41;45.53
52957;BME280;38819;42.692;23.342;2023-10-09T06:37:46;96114.75;;;15.45;44.99
52957;BME280;38819;42.692;23.342;2023-10-09T06:40:30;96116.34;;;15.32;45.15
52957;BME280;38819;42.692;23.342;2023-10-09T06:43:15;96113.25;;;15.38;44.70
52957;BME280;38819;42.692;23.342;2023-10-09T06:46:01;96121.91;;;15.41;44.14
52957;BME280;38819;42.692;23.342;2023-10-09T06:48:45;96123.59;;;15.36;44.38
52957;BME280;38819;42.692;23.342;2023-10-09T06:51:13;96121.41;;;15.38;44.42
52957;BME280;38819;42.692;23.342;2023-10-09T06:53:51;96137.41;;;15.40;44.85
52957;BME280;38819;42.692;23.342;2023-10-09T06:56:23;96124.59;;;15.27;44.52
52957;BME280;38819;42.692;23.342;2023-10-09T07:01:24;96129.13;;;15.31;43.55
52957;BME280;38819;42.692;23.342;2023-10-09T07:03:53;96122.88;;;15.17;43.76
52957;BME280;38819;42.692;23.342;2023-10-09T07:06:20;96122.06;;;15.16;44.15
52957;BME280;38819;42.692;23.342;2023-10-09T07:08:56;96128.03;;;15.32;44.34
52957;BME280;38819;42.692;23.342;2023-10-09T07:11:34;96124.81;;;15.44;44.04
52957;BME280;38819;42.692;23.342;2023-10-09T07:16:55;96128.38;;;15.72;42.75
52957;BME280;38819;42.692;23.342;2023-10-09T07:19:25;96128.78;;;15.80;42.02
52957;BME280;38819;42.692;23.342;2023-10-09T07:22:11;96119.47;;;15.67;42.30
52957;BME280;38819;42.692;23.342;2023-10-09T07:24:52;96132.09;;;15.63;42.42
52957;BME280;38819;42.692;23.342;2023-10-09T07:27:38;96142.72;;;15.78;41.78
52957;BME280;38819;42.692;23.342;2023-10-09T07:30:18;96135.81;;;15.67;41.13
52957;BME280;38819;42.692;23.342;2023-10-09T07:32:57;96129.38;;;15.63;41.89
52957;BME280;38819;42.692;23.342;2023-10-09T07:35:35;96121.66;;;15.84;41.41
52957;BME280;38819;42.692;23.342;2023-10-09T07:40:37;96141.50;;;15.98;40.34
52957;BME280;38819;42.692;23.342;2023-10-09T07:43:26;96125.25;;;15.93;40.43
52957;BME280;38819;42.692;23.342;2023-10-09T07:45:55;96132.28;;;16.08;40.43
52957;BME280;38819;42.692;23.342;2023-10-09T07:48:23;96127.44;;;16.05;40.32
52957;BME280;38819;42.692;23.342;2023-10-09T07:50:51;96126.06;;;16.07;40.05
52957;BME280;38819;42.692;23.342;2023-10-09T07:53:23;96117.53;;;16.23;40.13
52957;BME280;38819;42.692;23.342;2023-10-09T07:55:55;96133.97;;;16.32;39.54
52957;BME280;38819;42.692;23.342;2023-10-09T07:58:30;96129.84;;;16.34;39.60
52957;BME280;38819;42.692;23.342;2023-10-09T08:00:57;96136.34;;;16.47;38.89
52957;BME280;38819;42.692;23.342;2023-10-09T08:03:35;96133.44;;;16.43;39.06
52957;BME280;38819;42.692;23.342;2023-10-09T08:06:02;96142.00;;;16.51;37.38
52957;BME280;38819;42.692;23.342;2023-10-09T08:08:46;96141.78;;;16.47;37.26
52957;BME280;38819;42.692;23.342;2023-10-09T08:11:30;96141.41;;;16.40;37.33
52957;BME280;38819;42.692;23.342;2023-10-09T08:14:08;96126.06;;;16.44;37.11
52957;BME280;38819;42.692;23.342;2023-10-09T08:16:46;96118.16;;;16.56;37.14
52957;BME280;38819;42.692;23.342;2023-10-09T08:19:12;96116.41;;;16.60;36.97
52957;BME280;38819;42.692;23.342;2023-10-09T08:21:58;96128.56;;;16.54;36.96
52957;BME280;38819;42.692;23.342;2023-10-09T08:24:44;96112.13;;;16.68;36.78
52957;BME280;38819;42.692;23.342;2023-10-09T08:27:18;96117.34;;;16.78;36.41
52957;BME280;38819;42.692;23.342;2023-10-09T08:29:56;96111.41;;;16.76;36.22
52957;BME280;38819;42.692;23.342;2023-10-09T08:32:41;96108.19;;;16.74;36.54
52957;BME280;38819;42.692;23.342;2023-10-09T08:35:09;96099.81;;;16.71;37.15
52957;BME280;38819;42.692;23.342;2023-10-09T08:37:53;96095.81;;;16.77;37.04
52957;BME280;38819;42.692;23.342;2023-10-09T08:40:19;96088.84;;;16.84;36.52
52957;BME280;38819;42.692;23.342;2023-10-09T08:42:53;96085.41;;;16.79;36.37
52957;BME280;38819;42.692;23.342;2023-10-09T08:45:22;96086.41;;;16.83;36.63
52957;BME280;38819;42.692;23.342;2023-10-09T08:47:52;96084.41;;;16.75;36.64
52957;BME280;38819;42.692;23.342;2023-10-09T08:50:20;96082.78;;;16.88;36.61
52957;BME280;38819;42.692;23.342;2023-10-09T08:52:47;96074.81;;;17.00;36.49
52957;BME280;38819;42.692;23.342;2023-10-09T08:55:14;96068.91;;;17.07;36.21
52957;BME280;38819;42.692;23.342;2023-10-09T08:57:42;96080.00;;;17.10;35.88
52957;BME280;38819;42.692;23.342;2023-10-09T09:00:17;96073.00;;;17.18;35.71
52957;BME280;38819;42.692;23.342;2023-10-09T09:02:47;96067.06;;;17.25;34.85
52957;BME280;38819;42.692;23.342;2023-10-09T09:05:21;96067.88;;;17.25;34.63
52957;BME280;38819;42.692;23.342;2023-10-09T09:07:49;96079.06;;;17.15;34.15
52957;BME280;38819;42.692;23.342;2023-10-09T09:10:14;96074.41;;;17.15;34.35
52957;BME280;38819;42.692;23.342;2023-10-09T09:12:48;96064.50;;;17.19;34.44
52957;BME280;38819;42.692;23.342;2023-10-09T09:15:27;96079.28;;;17.27;34.08
52957;BME280;38819;42.692;23.342;2023-10-09T09:18:03;96089.13;;;17.37;33.75
52957;BME280;38819;42.692;23.342;2023-10-09T09:20:32;96075.25;;;17.25;32.88
52957;BME280;38819;42.692;23.342;2023-10-09T09:23:02;96078.94;;;17.20;33.73
52957;BME280;38819;42.692;23.342;2023-10-09T09:25:47;96079.56;;;17.17;33.79
52957;BME280;38819;42.692;23.342;2023-10-09T09:28:24;96076.69;;;17.22;33.62
52957;BME280;38819;42.692;23.342;2023-10-09T09:30:52;96078.16;;;17.28;34.09
52957;BME280;38819;42.692;23.342;2023-10-09T09:33:24;96076.06;;;17.25;33.82
52957;BME280;38819;42.692;23.342;2023-10-09T09:36:06;96056.97;;;17.34;33.51
52957;BME280;38819;42.692;23.342;2023-10-09T09:38:33;96062.94;;;17.36;33.44
52957;BME280;38819;42.692;23.342;2023-10-09T09:41:15;96054.63;;;17.41;32.98
52957;BME280;38819;42.692;23.342;2023-10-09T09:43:57;96058.94;;;17.42;32.15
52957;BME280;38819;42.692;23.342;2023-10-09T09:46:33;96060.09;;;17.41;31.36
52957;BME280;38819;42.692;23.342;2023-10-09T09:49:05;96054.34;;;17.51;32.12
52957;BME280;38819;42.692;23.342;2023-10-09T09:51:31;96054.47;;;17.46;31.38
52957;BME280;38819;42.692;23.342;2023-10-09T09:53:57;96041.13;;;17.45;32.27
52957;BME280;38819;42.692;23.342;2023-10-09T09:56:26;96044.88;;;17.57;31.21
52957;BME280;38819;42.692;23.342;2023-10-09T09:58:56;96043.09;;;17.53;31.54
52957;BME280;38819;42.692;23.342;2023-10-09T10:01:29;96026.03;;;17.47;31.37
52957;BME280;38819;42.692;23.342;2023-10-09T10:04:07;96028.59;;;17.44;30.62
52957;BME280;38819;42.692;23.342;2023-10-09T10:06:37;96030.09;;;17.58;31.31
52957;BME280;38819;42.692;23.342;2023-10-09T10:09:06;96031.84;;;17.54;31.43
52957;BME280;38819;42.692;23.342;2023-10-09T10:11:43;96011.75;;;17.59;31.22
52957;BME280;38819;42.692;23.342;2023-10-09T10:14:13;96021.28;;;17.70;31.67
52957;BME280;38819;42.692;23.342;2023-10-09T10:17:03;95996.66;;;17.44;31.26
52957;BME280;38819;42.692;23.342;2023-10-09T10:22:27;95990.25;;;17.66;30.39
52957;BME280;38819;42.692;23.342;2023-10-09T10:24:53;95996.84;;;17.74;30.38
52957;BME280;38819;42.692;23.342;2023-10-09T10:27:25;95975.31;;;17.72;30.67
52957;BME280;38819;42.692;23.342;2023-10-09T10:32:56;95957.03;;;17.90;29.91
52957;BME280;38819;42.692;23.342;2023-10-09T10:35:41;95954.63;;;17.89;30.20
52957;BME280;38819;42.692;23.342;2023-10-09T10:38:33;95948.19;;;17.93;30.56
52957;BME280;38819;42.692;23.342;2023-10-09T10:41:28;95940.63;;;17.99;30.46
52957;BME280;38819;42.692;23.342;2023-10-09T10:43:56;95940.31;;;18.01;30.24
52957;BME280;38819;42.692;23.342;2023-10-09T10:46:25;95925.19;;;18.12;30.47
52957;BME280;38819;42.692;23.342;2023-10-09T10:49:01;95940.63;;;18.08;30.19
52957;BME280;38819;42.692;23.342;2023-10-09T10:51:46;95930.47;;;18.17;29.94
52957;BME280;38819;42.692;23.342;2023-10-09T10:54:22;95932.59;;;18.11;30.39
52957;BME280;38819;42.692;23.342;2023-10-09T10:56:57;95926.81;;;18.13;29.28
52957;BME280;38819;42.692;23.342;2023-10-09T10:59:23;95927.91;;;18.12;29.41
52957;BME280;38819;42.692;23.342;2023-10-09T11:01:50;95920.84;;;18.20;29.88
52957;BME280;38819;42.692;23.342;2023-10-09T11:04:39;95920.19;;;18.05;30.18
52957;BME280;38819;42.692;23.342;2023-10-09T11:07:07;95916.81;;;18.08;30.42
52957;BME280;38819;42.692;23.342;2023-10-09T11:09:51;95916.78;;;18.26;30.03
52957;BME280;38819;42.692;23.342;2023-10-09T11:15:34;95891.34;;;18.43;30.28
52957;BME280;38819;42.692;23.342;2023-10-09T11:18:13;95879.41;;;18.56;30.25
52957;BME280;38819;42.692;23.342;2023-10-09T11:20:51;95873.06;;;18.73;30.12
52957;BME280;38819;42.692;23.342;2023-10-09T11:23:33;95869.50;;;18.73;29.70
52957;BME280;38819;42.692;23.342;2023-10-09T11:25:59;95865.03;;;18.68;30.20
52957;BME280;38819;42.692;23.342;2023-10-09T11:28:43;95859.88;;;18.66;29.76
52957;BME280;38819;42.692;23.342;2023-10-09T11:31:22;95856.31;;;18.66;29.33
52957;BME280;38819;42.692;23.342;2023-10-09T11:33:51;95870.19;;;18.61;29.62
52957;BME280;38819;42.692;23.342;2023-10-09T11:36:21;95876.97;;;18.63;29.54
52957;BME280;38819;42.692;23.342;2023-10-09T11:39:01;95863.59;;;18.62;29.71
52957;BME280;38819;42.692;23.342;2023-10-09T11:41:45;95858.13;;;18.62;29.54
52957;BME280;38819;42.692;23.342;2023-10-09T11:44:15;95859.56;;;18.59;29.58
52957;BME280;38819;42.692;23.342;2023-10-09T11:46:58;95856.81;;;18.68;29.07
52957;BME280;38819;42.692;23.342;2023-10-09T11:49:23;95861.47;;;18.76;29.02
52957;BME280;38819;42.692;23.342;2023-10-09T11:52:09;95839.56;;;18.76;29.38
52957;BME280;38819;42.692;23.342;2023-10-09T11:54:37;95834.22;;;18.88;28.70
52957;BME280;38819;42.692;23.342;2023-10-09T11:57:03;95828.72;;;18.88;28.81
52957;BME280;38819;42.692;23.342;2023-10-09T11:59:29;95813.34;;;19.05;28.44
52957;BME280;38819;42.692;23.342;2023-10-09T12:02:04;95813.34;;;19.05;28.88
52957;BME280;38819;42.692;23.342;2023-10-09T12:04:30;95811.50;;;19.18;29.08
52957;BME280;38819;42.692;23.342;2023-10-09T12:06:56;95798.47;;;19.15;29.19
52957;BME280;38819;42.692;23.342;2023-10-09T12:09:34;95792.13;;;19.23;28.97
52957;BME280;38819;42.692;23.342;2023-10-09T12:12:04;95794.16;;;19.26;29.10
52957;BME280;38819;42.692;23.342;2023-10-09T12:14:30;95793.84;;;19.28;29.06
52957;BME280;38819;42.692;23.342;2023-10-09T12:17:02;95786.78;;;19.27;28.54
52957;BME280;38819;42.692;23.342;2023-10-09T12:19:35;95789.75;;;19.34;28.75
52957;BME280;38819;42.692;23.342;2023-10-09T12:22:01;95785.63;;;19.49;28.70
52957;BME280;38819;42.692;23.342;2023-10-09T12:24:32;95775.03;;;19.59;28.50
52957;BME280;38819;42.692;23.342;2023-10-09T12:26:59;95774.16;;;19.68;28.00
52957;BME280;38819;42.692;23.342;2023-10-09T12:29:24;95767.53;;;19.69;27.79
52957;BME280;38819;42.692;23.342;2023-10-09T12:31:55;95778.84;;;19.67;27.86
52957;BME280;38819;42.692;23.342;2023-10-09T12:34:24;95773.47;;;19.71;28.06
52957;BME280;38819;42.692;23.342;2023-10-09T12:36:55;95762.50;;;19.71;27.99
52957;BME280;38819;42.692;23.342;2023-10-09T12:39:21;95759.38;;;19.81;27.83
52957;BME280;38819;42.692;23.342;2023-10-09T12:41:48;95759.59;;;19.76;27.45
52957;BME280;38819;42.692;23.342;2023-10-09T12:44:14;95750.25;;;19.77;27.56
52957;BME280;38819;42.692;23.342;2023-10-09T12:46:44;95738.72;;;19.84;26.86
52957;BME280;38819;42.692;23.342;2023-10-09T12:49:20;95751.75;;;19.87;27.07
52957;BME280;38819;42.692;23.342;2023-10-09T12:51:51;95741.81;;;19.94;27.39
52957;BME280;38819;42.692;23.342;2023-10-09T12:54:17;95735.41;;;19.90;26.46
52957;BME280;38819;42.692;23.342;2023-10-09T12:56:45;95727.41;;;19.85;27.39
52957;BME280;38819;42.692;23.342;2023-10-09T12:59:14;95723.44;;;19.95;27.09
52957;BME280;38819;42.692;23.342;2023-10-09T13:01:41;95737.84;;;20.04;26.77
52957;BME280;38819;42.692;23.342;2023-10-09T13:04:18;95737.59;;;20.09;26.74
52957;BME280;38819;42.692;23.342;2023-10-09T13:06:47;95724.84;;;20.13;26.66
52957;BME280;38819;42.692;23.342;2023-10-09T13:09:17;95722.19;;;20.17;26.73
52957;BME280;38819;42.692;23.342;2023-10-09T13:12:01;95714.53;;;20.10;26.31
52957;BME280;38819;42.692;23.342;2023-10-09T13:14:28;95701.97;;;20.09;26.30
52957;BME280;38819;42.692;23.342;2023-10-09T13:16:53;95709.50;;;20.12;26.11
52957;BME280;38819;42.692;23.342;2023-10-09T13:19:19;95695.22;;;20.07;26.09
52957;BME280;38819;42.692;23.342;2023-10-09T13:21:45;95688.25;;;20.09;26.02
52957;BME280;38819;42.692;23.342;2023-10-09T13:24:10;95699.59;;;20.20;26.12
52957;BME280;38819;42.692;23.342;2023-10-09T13:26:41;95694.66;;;20.26;25.78
52957;BME280;38819;42.692;23.342;2023-10-09T13:29:10;95694.00;;;20.16;25.48
52957;BME280;38819;42.692;23.342;2023-10-09T13:31:37;95684.59;;;20.17;25.60
52957;BME280;38819;42.692;23.342;2023-10-09T13:34:06;95686.09;;;20.27;24.25
52957;BME280;38819;42.692;23.342;2023-10-09T13:36:34;95689.88;;;20.35;24.35
52957;BME280;38819;42.692;23.342;2023-10-09T13:39:02;95691.13;;;20.25;23.92